createdAt,value
2023-01-29T00:00:09.224Z,1.25
2023-01-29T00:01:08.939Z,1.2
2023-01-29T00:02:08.900Z,1.19
2023-01-29T00:03:08.968Z,1.21
2023-01-29T00:04:09.215Z,1.25
2023-01-29T00:05:25.919Z,1.24
2023-01-29T00:06:08.860Z,1.2
2023-01-29T00:07:08.871Z,1.22
2023-01-29T00:08:08.964Z,1.26
2023-01-29T00:09:09.186Z,1.27
2023-01-29T00:10:11.307Z,1.31
2023-01-29T00:11:08.872Z,1.33
2023-01-29T00:12:08.888Z,1.28
2023-01-29T00:13:08.910Z,1.22
2023-01-29T00:14:09.216Z,1.16
2023-01-29T00:15:09.212Z,1.14
2023-01-29T00:16:08.931Z,1.11
2023-01-29T00:17:09.036Z,1.08
2023-01-29T00:18:08.982Z,1.07
2023-01-29T00:19:09.228Z,1.03
2023-01-29T00:20:08.905Z,1.05
2023-01-29T00:21:11.217Z,1.1
2023-01-29T00:22:09.009Z,1.14
2023-01-29T00:23:09.006Z,1.16
2023-01-29T00:24:09.271Z,1.22
2023-01-29T00:25:08.911Z,1.23
2023-01-29T00:26:08.903Z,1.24
2023-01-29T00:27:08.910Z,1.27
2023-01-29T00:28:08.933Z,1.25
2023-01-29T00:29:09.225Z,1.27
2023-01-29T00:30:09.229Z,1.29
2023-01-29T00:31:09.100Z,1.22
2023-01-29T00:32:11.373Z,1.17
2023-01-29T00:33:09.010Z,1.13
2023-01-29T00:34:09.208Z,1.09
2023-01-29T00:35:08.874Z,1.03
2023-01-29T00:36:08.922Z,1.03
2023-01-29T00:37:09.058Z,1.01
2023-01-29T00:38:08.869Z,0.99
2023-01-29T00:39:08.991Z,1.04
2023-01-29T00:40:08.900Z,1.11
2023-01-29T00:41:08.865Z,1.08
2023-01-29T00:42:08.892Z,1.04
2023-01-29T00:43:11.252Z,1
2023-01-29T00:44:08.891Z,1.01
2023-01-29T00:45:09.210Z,1.01
2023-01-29T00:46:08.878Z,0.95
2023-01-29T00:47:08.975Z,0.97
2023-01-29T00:48:08.888Z,0.99
2023-01-29T00:49:08.865Z,1.02
2023-01-29T00:50:09.965Z,0.94
2023-01-29T00:51:08.862Z,0.86
2023-01-29T00:52:08.994Z,0.82
2023-01-29T00:53:08.928Z,0.8
2023-01-29T00:54:11.281Z,0.78
2023-01-29T00:55:09.227Z,0.78
2023-01-29T00:56:08.859Z,0.78
2023-01-29T00:57:08.876Z,0.74
2023-01-29T00:58:08.991Z,0.85
2023-01-29T00:59:08.977Z,0.8
2023-01-29T01:00:08.878Z,0.75
2023-01-29T01:01:09.344Z,0.7
2023-01-29T01:02:08.971Z,0.78
2023-01-29T01:03:08.929Z,0.78
2023-01-29T01:04:08.955Z,0.92
2023-01-29T01:05:11.370Z,0.99
2023-01-29T01:06:09.216Z,1.03
2023-01-29T01:07:08.943Z,0.99
2023-01-29T01:08:08.879Z,0.99
2023-01-29T01:09:08.996Z,0.91
2023-01-29T01:10:08.949Z,0.83
2023-01-29T01:11:09.218Z,0.77
2023-01-29T01:12:08.974Z,0.74
2023-01-29T01:13:08.945Z,0.8
2023-01-29T01:14:08.982Z,0.87
2023-01-29T01:15:09.215Z,0.84
2023-01-29T01:16:13.796Z,0.81
2023-01-29T01:17:08.945Z,0.88
2023-01-29T01:18:08.860Z,0.91
2023-01-29T01:19:09.003Z,0.93
2023-01-29T01:20:09.966Z,0.95
2023-01-29T01:21:09.222Z,0.99
2023-01-29T01:22:08.971Z,1.05
2023-01-29T01:23:08.997Z,1.07
2023-01-29T01:24:08.909Z,1.09
2023-01-29T01:25:09.015Z,1.05
2023-01-29T01:26:09.218Z,1.11
2023-01-29T01:27:11.253Z,1.15
2023-01-29T01:28:08.888Z,1.16
2023-01-29T01:29:08.974Z,1.19
2023-01-29T01:30:09.221Z,1.13
2023-01-29T01:31:09.313Z,1.21
2023-01-29T01:32:08.887Z,1.21
2023-01-29T01:33:08.980Z,1.13
2023-01-29T01:34:08.944Z,1.12
2023-01-29T01:35:09.007Z,1.12
2023-01-29T01:36:09.223Z,1.06
2023-01-29T01:37:08.939Z,1
2023-01-29T01:38:11.333Z,1.02
2023-01-29T01:39:08.939Z,1.03
2023-01-29T01:40:08.928Z,1.04
2023-01-29T01:41:09.216Z,1.05
2023-01-29T01:42:08.920Z,1.07
2023-01-29T01:43:08.980Z,1.08
2023-01-29T01:44:08.956Z,1.06
2023-01-29T01:45:09.220Z,1.05
2023-01-29T01:46:09.337Z,1.05
2023-01-29T01:47:08.928Z,0.97
2023-01-29T01:48:08.885Z,0.85
2023-01-29T01:49:11.270Z,0.87
2023-01-29T01:50:09.977Z,0.85
2023-01-29T01:51:09.219Z,0.86
2023-01-29T01:52:09.010Z,0.84
2023-01-29T01:53:08.896Z,0.81
2023-01-29T01:54:08.831Z,0.82
2023-01-29T01:55:08.997Z,0.8
2023-01-29T01:56:09.214Z,0.84
2023-01-29T01:57:09.021Z,0.83
2023-01-29T01:58:08.929Z,0.74
2023-01-29T01:59:08.927Z,0.76
2023-01-29T02:00:13.742Z,0.75
2023-01-29T02:01:09.291Z,0.8
2023-01-29T02:02:08.912Z,0.76
2023-01-29T02:03:08.935Z,0.76
2023-01-29T02:04:08.923Z,0.68
2023-01-29T02:05:08.928Z,0.62
2023-01-29T02:06:09.229Z,0.64
2023-01-29T02:07:08.900Z,0.63
2023-01-29T02:08:08.869Z,0.72
2023-01-29T02:09:08.996Z,0.74
2023-01-29T02:10:09.009Z,0.7
2023-01-29T02:11:12.252Z,0.7
2023-01-29T02:12:08.977Z,0.71
2023-01-29T02:13:08.879Z,0.7
2023-01-29T02:14:08.885Z,0.71
2023-01-29T02:15:09.219Z,0.74
2023-01-29T02:16:09.211Z,0.69
2023-01-29T02:17:08.938Z,0.77
2023-01-29T02:18:08.937Z,0.78
2023-01-29T02:19:08.991Z,0.69
2023-01-29T02:20:09.971Z,0.66
2023-01-29T02:21:09.215Z,0.69
2023-01-29T02:22:11.238Z,0.76
2023-01-29T02:23:08.897Z,0.78
2023-01-29T02:24:09.061Z,0.78
2023-01-29T02:25:09.006Z,0.79
2023-01-29T02:26:09.225Z,0.82
2023-01-29T02:27:08.844Z,0.8
2023-01-29T02:28:08.994Z,0.83
2023-01-29T02:29:08.902Z,0.85
2023-01-29T02:30:09.224Z,0.85
2023-01-29T02:31:09.469Z,0.87
2023-01-29T02:32:08.895Z,0.83
2023-01-29T02:33:11.331Z,0.86
2023-01-29T02:34:08.985Z,0.81
2023-01-29T02:35:08.994Z,0.84
2023-01-29T02:36:09.209Z,0.85
2023-01-29T02:37:08.962Z,0.89
2023-01-29T02:38:08.890Z,0.87
2023-01-29T02:39:08.854Z,0.88
2023-01-29T02:40:08.892Z,0.94
2023-01-29T02:41:09.227Z,0.95
2023-01-29T02:42:09.000Z,0.96
2023-01-29T02:43:08.974Z,0.91
2023-01-29T02:44:11.332Z,0.9
2023-01-29T02:45:09.216Z,0.93
2023-01-29T02:46:09.279Z,0.96
2023-01-29T02:47:08.921Z,0.97
2023-01-29T02:48:08.872Z,1.01
2023-01-29T02:49:08.880Z,1
2023-01-29T02:50:09.967Z,1.03
2023-01-29T02:51:09.218Z,1.05
2023-01-29T02:52:08.858Z,1.08
2023-01-29T02:53:08.908Z,1.08
2023-01-29T02:54:08.939Z,1.03
2023-01-29T02:55:11.199Z,0.96
2023-01-29T02:56:09.211Z,0.93
2023-01-29T02:57:08.887Z,0.93
2023-01-29T02:58:08.953Z,0.83
2023-01-29T02:59:08.988Z,0.8
2023-01-29T03:00:09.240Z,0.83
2023-01-29T03:01:09.262Z,0.89
2023-01-29T03:02:09.035Z,0.94
2023-01-29T03:03:08.927Z,0.97
2023-01-29T03:04:08.996Z,0.96
2023-01-29T03:05:08.832Z,0.93
2023-01-29T03:06:13.689Z,0.87
2023-01-29T03:07:08.880Z,0.83
2023-01-29T03:08:08.972Z,0.76
2023-01-29T03:09:08.951Z,0.69
2023-01-29T03:10:09.002Z,0.64
2023-01-29T03:11:09.213Z,0.64
2023-01-29T03:12:08.964Z,0.68
2023-01-29T03:13:08.981Z,0.7
2023-01-29T03:14:08.999Z,0.76
2023-01-29T03:15:09.219Z,0.77
2023-01-29T03:16:09.058Z,0.69
2023-01-29T03:17:13.720Z,0.59
2023-01-29T03:18:08.877Z,0.54
2023-01-29T03:19:09.762Z,0.47
2023-01-29T03:20:09.720Z,0.47
2023-01-29T03:21:08.997Z,0.5
2023-01-29T03:22:09.224Z,0.46
2023-01-29T03:23:08.981Z,0.42
2023-01-29T03:24:09.062Z,0.41
2023-01-29T03:25:08.939Z,0.38
2023-01-29T03:26:08.982Z,0.33
2023-01-29T03:27:09.260Z,0.35
2023-01-29T03:28:11.305Z,0.42
2023-01-29T03:29:08.973Z,0.47
2023-01-29T03:30:09.219Z,0.52
2023-01-29T03:31:09.022Z,0.55
2023-01-29T03:32:09.286Z,0.57
2023-01-29T03:33:09.011Z,0.54
2023-01-29T03:34:08.861Z,0.56
2023-01-29T03:35:08.951Z,0.59
2023-01-29T03:36:08.961Z,0.55
2023-01-29T03:37:09.210Z,0.56
2023-01-29T03:38:09.959Z,0.51
2023-01-29T03:39:11.327Z,0.55
2023-01-29T03:40:08.975Z,0.6
2023-01-29T03:41:08.935Z,0.57
2023-01-29T03:42:09.212Z,0.5
2023-01-29T03:43:08.851Z,0.46
2023-01-29T03:44:08.936Z,0.55
2023-01-29T03:45:08.950Z,0.61
2023-01-29T03:46:09.003Z,0.54
2023-01-29T03:47:09.214Z,0.54
2023-01-29T03:48:08.946Z,0.59
2023-01-29T03:49:09.006Z,0.66
2023-01-29T03:50:14.987Z,0.6
2023-01-29T03:51:08.971Z,0.41
2023-01-29T03:52:09.216Z,0.4
2023-01-29T03:53:08.989Z,0.39
2023-01-29T03:54:08.997Z,0.39
2023-01-29T03:55:08.970Z,0.41
2023-01-29T03:56:08.955Z,0.38
2023-01-29T03:57:09.218Z,0.36
2023-01-29T03:58:08.985Z,0.42
2023-01-29T03:59:08.977Z,0.41
2023-01-29T04:00:09.219Z,0.54
2023-01-29T04:01:11.247Z,0.54
2023-01-29T04:02:09.213Z,0.55
2023-01-29T04:03:08.985Z,0.54
2023-01-29T04:04:08.877Z,0.53
2023-01-29T04:05:08.926Z,0.56
2023-01-29T04:06:08.987Z,0.55
2023-01-29T04:07:09.009Z,0.57
2023-01-29T04:08:08.853Z,0.56
2023-01-29T04:09:08.978Z,0.55
2023-01-29T04:10:08.876Z,0.5
2023-01-29T04:11:08.964Z,0.5
2023-01-29T04:12:13.681Z,0.49
2023-01-29T04:13:08.887Z,0.47
2023-01-29T04:14:08.868Z,0.45
2023-01-29T04:15:09.215Z,0.43
2023-01-29T04:16:09.057Z,0.41
2023-01-29T04:17:09.210Z,0.38
2023-01-29T04:18:08.888Z,0.33
2023-01-29T04:19:08.971Z,0.25
2023-01-29T04:20:09.795Z,0.17
2023-01-29T04:21:08.931Z,0.19
2023-01-29T04:22:09.221Z,0.21
2023-01-29T04:23:11.315Z,0.19
2023-01-29T04:24:09.015Z,0.19
2023-01-29T04:25:09.050Z,0.2
2023-01-29T04:26:08.930Z,0.2
2023-01-29T04:27:09.313Z,0.2
2023-01-29T04:28:08.901Z,0.18
2023-01-29T04:29:08.916Z,0.21
2023-01-29T04:30:09.214Z,0.26
2023-01-29T04:31:08.997Z,0.25
2023-01-29T04:32:09.224Z,0.24
2023-01-29T04:33:08.911Z,0.28
2023-01-29T04:34:11.233Z,0.27
2023-01-29T04:35:08.981Z,0.22
2023-01-29T04:36:08.942Z,0.19
2023-01-29T04:37:09.217Z,0.18
2023-01-29T04:38:08.998Z,0.26
2023-01-29T04:39:11.050Z,0.3
2023-01-29T04:40:08.871Z,0.28
2023-01-29T04:41:08.937Z,0.25
2023-01-29T04:42:09.216Z,0.28
2023-01-29T04:43:08.851Z,0.32
2023-01-29T04:44:08.989Z,0.34
2023-01-29T04:45:13.693Z,0.34
2023-01-29T04:46:08.885Z,0.38
2023-01-29T04:47:09.274Z,0.38
2023-01-29T04:48:08.865Z,0.35
2023-01-29T04:49:08.929Z,0.37
2023-01-29T04:50:09.094Z,0.38
2023-01-29T04:51:08.940Z,0.36
2023-01-29T04:52:09.213Z,0.33
2023-01-29T04:53:08.997Z,0.33
2023-01-29T04:54:08.988Z,0.31
2023-01-29T04:55:08.960Z,0.28
2023-01-29T04:56:11.319Z,0.3
2023-01-29T04:57:09.211Z,0.3
2023-01-29T04:58:08.896Z,0.26
2023-01-29T04:59:08.995Z,0.23
2023-01-29T05:00:09.212Z,0.21
2023-01-29T05:01:08.883Z,0.15
2023-01-29T05:02:09.209Z,0.1
2023-01-29T05:03:09.023Z,0.04
2023-01-29T05:04:09.005Z,-0.03
2023-01-29T05:05:08.920Z,-0.05
2023-01-29T05:06:08.903Z,-0.02
2023-01-29T05:07:13.737Z,-0.01
2023-01-29T05:08:08.879Z,-0.02
2023-01-29T05:09:08.897Z,-0.09
2023-01-29T05:10:08.979Z,-0.15
2023-01-29T05:11:08.964Z,-0.17
2023-01-29T05:12:09.212Z,-0.2
2023-01-29T05:13:08.945Z,-0.2
2023-01-29T05:14:08.997Z,-0.23
2023-01-29T05:15:09.223Z,-0.23
2023-01-29T05:16:08.900Z,-0.24
2023-01-29T05:17:09.212Z,-0.23
2023-01-29T05:18:11.408Z,-0.23
2023-01-29T05:19:09.014Z,-0.22
2023-01-29T05:20:09.962Z,-0.18
2023-01-29T05:21:08.973Z,-0.17
2023-01-29T05:22:09.216Z,-0.15
2023-01-29T05:23:09.015Z,-0.15
2023-01-29T05:24:08.999Z,-0.14
2023-01-29T05:25:08.956Z,-0.14
2023-01-29T05:26:09.000Z,-0.15
2023-01-29T05:27:09.272Z,-0.17
2023-01-29T05:28:08.988Z,-0.16
2023-01-29T05:29:11.218Z,-0.18
2023-01-29T05:30:09.220Z,-0.17
2023-01-29T05:31:08.966Z,-0.17
2023-01-29T05:32:09.219Z,-0.21
2023-01-29T05:33:08.959Z,-0.28
2023-01-29T05:34:08.948Z,-0.28
2023-01-29T05:35:08.869Z,-0.28
2023-01-29T05:36:08.936Z,-0.27
2023-01-29T05:37:09.211Z,-0.24
2023-01-29T05:38:08.943Z,-0.23
2023-01-29T05:39:08.965Z,-0.21
2023-01-29T05:40:11.327Z,-0.17
2023-01-29T05:41:08.885Z,-0.15
2023-01-29T05:42:09.212Z,-0.07
2023-01-29T05:43:08.911Z,0
2023-01-29T05:44:08.882Z,0.04
2023-01-29T05:45:09.274Z,0.07
2023-01-29T05:46:08.969Z,0.12
2023-01-29T05:47:08.962Z,0.15
2023-01-29T05:48:08.880Z,0.18
2023-01-29T05:49:08.994Z,0.21
2023-01-29T05:50:09.967Z,0.24
2023-01-29T05:51:11.318Z,0.26
2023-01-29T05:52:09.218Z,0.26
2023-01-29T05:53:08.931Z,0.32
2023-01-29T05:54:08.907Z,0.33
2023-01-29T05:55:08.884Z,0.31
2023-01-29T05:56:08.951Z,0.31
2023-01-29T05:57:09.214Z,0.35
2023-01-29T05:58:08.932Z,0.31
2023-01-29T05:59:08.950Z,0.21
2023-01-29T06:00:09.219Z,0.16
2023-01-29T06:01:08.930Z,0.17
2023-01-29T06:02:11.350Z,0.23
2023-01-29T06:03:09.035Z,0.27
2023-01-29T06:04:08.892Z,0.37
2023-01-29T06:05:08.943Z,0.43
2023-01-29T06:06:08.895Z,0.47
2023-01-29T06:07:09.223Z,0.52
2023-01-29T06:08:08.880Z,0.53
2023-01-29T06:09:08.987Z,0.52
2023-01-29T06:10:08.940Z,0.55
2023-01-29T06:11:08.976Z,0.54
2023-01-29T06:12:09.221Z,0.56
2023-01-29T06:13:11.333Z,0.58
2023-01-29T06:14:08.959Z,0.62
2023-01-29T06:15:09.213Z,0.59
2023-01-29T06:16:08.933Z,0.54
2023-01-29T06:17:09.213Z,0.54
2023-01-29T06:18:08.866Z,0.52
2023-01-29T06:19:08.904Z,0.56
2023-01-29T06:20:09.796Z,0.58
2023-01-29T06:21:08.969Z,0.54
2023-01-29T06:22:09.217Z,0.5
2023-01-29T06:23:08.851Z,0.47
2023-01-29T06:24:11.248Z,0.46
2023-01-29T06:25:08.860Z,0.44
2023-01-29T06:26:08.975Z,0.44
2023-01-29T06:27:09.207Z,0.49
2023-01-29T06:28:08.914Z,0.5
2023-01-29T06:29:08.992Z,0.43
2023-01-29T06:30:09.005Z,0.47
2023-01-29T06:31:28.386Z,0.57
2023-01-29T06:32:09.317Z,0.64
2023-01-29T06:33:08.837Z,0.64
2023-01-29T06:34:08.856Z,0.59
2023-01-29T06:35:11.312Z,0.58
2023-01-29T06:36:08.951Z,0.55
2023-01-29T06:37:09.217Z,0.6
2023-01-29T06:38:08.944Z,0.65
2023-01-29T06:39:08.857Z,0.69
2023-01-29T06:40:08.957Z,0.67
2023-01-29T06:41:08.985Z,0.69
2023-01-29T06:42:09.217Z,0.69
2023-01-29T06:43:08.853Z,0.65
2023-01-29T06:44:09.006Z,0.56
2023-01-29T06:45:09.208Z,0.51
2023-01-29T06:46:11.321Z,0.49
2023-01-29T06:47:09.302Z,0.47
2023-01-29T06:48:08.942Z,0.47
2023-01-29T06:49:08.965Z,0.47
2023-01-29T06:50:09.962Z,0.48
2023-01-29T06:51:08.924Z,0.46
2023-01-29T06:52:09.211Z,0.48
2023-01-29T06:53:08.895Z,0.45
2023-01-29T06:54:08.977Z,0.45
2023-01-29T06:55:08.991Z,0.46
2023-01-29T06:56:08.964Z,0.45
2023-01-29T06:57:13.717Z,0.45
2023-01-29T06:58:08.924Z,0.44
2023-01-29T06:59:08.938Z,0.44
2023-01-29T07:00:08.974Z,0.45
2023-01-29T07:01:08.916Z,0.43
2023-01-29T07:02:08.998Z,0.39
2023-01-29T07:03:08.865Z,0.38
2023-01-29T07:04:08.859Z,0.37
2023-01-29T07:05:08.937Z,0.27
2023-01-29T07:06:09.033Z,0.33
2023-01-29T07:07:09.212Z,0.33
2023-01-29T07:08:11.302Z,0.31
2023-01-29T07:09:08.952Z,0.24
2023-01-29T07:10:08.946Z,0.21
2023-01-29T07:11:08.989Z,0.31
2023-01-29T07:12:09.000Z,0.29
2023-01-29T07:13:08.929Z,0.27
2023-01-29T07:14:08.985Z,0.31
2023-01-29T07:15:09.224Z,0.4
2023-01-29T07:16:08.995Z,0.42
2023-01-29T07:17:09.237Z,0.43
2023-01-29T07:18:08.888Z,0.44
2023-01-29T07:19:11.261Z,0.42
2023-01-29T07:20:08.999Z,0.38
2023-01-29T07:21:08.865Z,0.41
2023-01-29T07:22:08.985Z,0.43
2023-01-29T07:23:09.813Z,0.45
2023-01-29T07:24:09.053Z,0.48
2023-01-29T07:25:09.000Z,0.51
2023-01-29T07:26:08.937Z,0.5
2023-01-29T07:27:09.243Z,0.53
2023-01-29T07:28:08.893Z,0.61
2023-01-29T07:29:08.967Z,0.65
2023-01-29T07:30:13.903Z,0.66
2023-01-29T07:31:09.024Z,0.68
2023-01-29T07:32:09.251Z,0.69
2023-01-29T07:33:08.942Z,0.73
2023-01-29T07:34:08.969Z,0.75
2023-01-29T07:35:08.881Z,0.84
2023-01-29T07:36:09.001Z,0.86
2023-01-29T07:37:08.980Z,0.89
2023-01-29T07:38:08.988Z,0.92
2023-01-29T07:39:08.979Z,0.95
2023-01-29T07:40:08.932Z,0.99
2023-01-29T07:41:11.294Z,1.01
2023-01-29T07:42:09.214Z,1.06
2023-01-29T07:43:08.898Z,1.13
2023-01-29T07:44:08.882Z,1.18
2023-01-29T07:45:09.219Z,1.16
2023-01-29T07:46:09.140Z,1.18
2023-01-29T07:47:09.230Z,1.17
2023-01-29T07:48:08.896Z,1.2
2023-01-29T07:49:08.954Z,1.23
2023-01-29T07:50:09.963Z,1.27
2023-01-29T07:51:08.962Z,1.3
2023-01-29T07:52:13.691Z,1.3
2023-01-29T07:53:08.936Z,1.31
2023-01-29T07:54:08.939Z,1.34
2023-01-29T07:55:08.945Z,1.38
2023-01-29T07:56:08.930Z,1.39
2023-01-29T07:57:09.183Z,1.29
2023-01-29T07:58:08.890Z,1.27
2023-01-29T07:59:08.962Z,1.29
2023-01-29T08:00:14.875Z,1.3
2023-01-29T08:01:08.905Z,1.29
2023-01-29T08:02:09.276Z,1.26
2023-01-29T08:03:11.287Z,1.23
2023-01-29T08:04:08.988Z,1.22
2023-01-29T08:05:08.989Z,1.23
2023-01-29T08:06:08.890Z,1.25
2023-01-29T08:07:09.215Z,1.26
2023-01-29T08:08:08.978Z,1.26
2023-01-29T08:09:08.978Z,1.28
2023-01-29T08:10:08.981Z,1.31
2023-01-29T08:11:08.977Z,1.32
2023-01-29T08:12:09.725Z,1.28
2023-01-29T08:13:08.919Z,1.3
2023-01-29T08:14:11.286Z,1.35
2023-01-29T08:15:09.221Z,1.4
2023-01-29T08:16:08.950Z,1.44
2023-01-29T08:17:09.220Z,1.5
2023-01-29T08:18:08.850Z,1.51
2023-01-29T08:19:08.942Z,1.54
2023-01-29T08:20:09.971Z,1.55
2023-01-29T08:21:08.948Z,1.56
2023-01-29T08:22:08.990Z,1.59
2023-01-29T08:23:08.935Z,1.58
2023-01-29T08:24:08.870Z,1.59
2023-01-29T08:25:11.279Z,1.62
2023-01-29T08:26:09.006Z,1.75
2023-01-29T08:27:08.874Z,1.84
2023-01-29T08:28:09.025Z,1.96
2023-01-29T08:29:08.979Z,2.1
2023-01-29T08:30:08.982Z,2.16
2023-01-29T08:31:09.007Z,2.29
2023-01-29T08:32:09.003Z,2.43
2023-01-29T08:33:09.812Z,2.48
2023-01-29T08:34:08.925Z,2.53
2023-01-29T08:35:08.925Z,2.67
2023-01-29T08:36:11.317Z,2.73
2023-01-29T08:37:09.212Z,2.79
2023-01-29T08:38:09.014Z,2.88
2023-01-29T08:39:08.889Z,2.94
2023-01-29T08:40:08.990Z,2.98
2023-01-29T08:41:09.005Z,3.03
2023-01-29T08:42:08.959Z,3.07
2023-01-29T08:43:09.717Z,3.11
2023-01-29T08:44:08.945Z,3.12
2023-01-29T08:45:09.212Z,3.12
2023-01-29T08:46:08.936Z,3.09
2023-01-29T08:47:13.656Z,3.06
2023-01-29T08:48:08.983Z,2.96
2023-01-29T08:49:08.993Z,2.83
2023-01-29T08:50:08.975Z,2.8
2023-01-29T08:51:08.947Z,2.87
2023-01-29T08:52:09.231Z,2.9
2023-01-29T08:53:08.932Z,2.87
2023-01-29T08:54:08.967Z,2.83
2023-01-29T08:55:08.882Z,2.67
2023-01-29T08:56:08.913Z,2.56
2023-01-29T08:57:09.210Z,2.43
2023-01-29T08:58:11.266Z,2.37
2023-01-29T08:59:08.945Z,2.31
2023-01-29T09:00:09.244Z,2.35
2023-01-29T09:01:08.979Z,2.35
2023-01-29T09:02:09.222Z,2.32
2023-01-29T09:03:08.895Z,2.24
2023-01-29T09:04:08.900Z,2.23
2023-01-29T09:05:08.901Z,2.25
2023-01-29T09:06:08.982Z,2.28
2023-01-29T09:07:09.220Z,2.2
2023-01-29T09:08:08.922Z,2.17
2023-01-29T09:09:11.269Z,2.19
2023-01-29T09:10:08.907Z,2.26
2023-01-29T09:11:08.862Z,2.27
2023-01-29T09:12:09.219Z,2.23
2023-01-29T09:13:08.951Z,2.19
2023-01-29T09:14:08.884Z,2.19
2023-01-29T09:15:09.221Z,2.16
2023-01-29T09:16:09.000Z,2.19
2023-01-29T09:17:09.212Z,2.21
2023-01-29T09:18:08.897Z,2.27
2023-01-29T09:19:08.993Z,2.39
2023-01-29T09:20:11.305Z,2.39
2023-01-29T09:21:08.871Z,2.38
2023-01-29T09:22:10.980Z,2.4
2023-01-29T09:23:08.944Z,2.41
2023-01-29T09:24:08.984Z,2.3
2023-01-29T09:25:09.015Z,2.22
2023-01-29T09:26:08.945Z,2.19
2023-01-29T09:27:09.221Z,2.14
2023-01-29T09:28:08.948Z,2.18
2023-01-29T09:29:09.000Z,2.26
2023-01-29T09:30:09.215Z,2.28
2023-01-29T09:31:11.287Z,2.29
2023-01-29T09:32:09.217Z,2.26
2023-01-29T09:33:08.965Z,2.29
2023-01-29T09:34:08.851Z,2.24
2023-01-29T09:35:08.972Z,2.21
2023-01-29T09:36:08.975Z,2.13
2023-01-29T09:37:09.212Z,2.1
2023-01-29T09:38:08.871Z,2
2023-01-29T09:39:08.892Z,1.98
2023-01-29T09:40:08.895Z,1.98
2023-01-29T09:41:08.934Z,1.97
2023-01-29T09:42:11.343Z,1.99
2023-01-29T09:43:08.996Z,2.03
2023-01-29T09:44:09.002Z,2.05
2023-01-29T09:45:09.217Z,2.09
2023-01-29T09:46:09.043Z,2.17
2023-01-29T09:47:09.213Z,2.2
2023-01-29T09:48:08.930Z,2.2
2023-01-29T09:49:08.914Z,2.23
2023-01-29T09:50:09.800Z,2.23
2023-01-29T09:51:08.967Z,2.19
2023-01-29T09:52:09.222Z,2.2
2023-01-29T09:53:12.234Z,2.21
2023-01-29T09:54:08.985Z,2.2
2023-01-29T09:55:08.902Z,2.26
2023-01-29T09:56:08.907Z,2.36
2023-01-29T09:57:09.213Z,2.44
2023-01-29T09:58:09.548Z,2.44
2023-01-29T09:59:08.984Z,2.5
2023-01-29T10:00:08.943Z,2.43
2023-01-29T10:01:09.106Z,2.46
2023-01-29T10:02:09.117Z,2.51
2023-01-29T10:03:08.992Z,2.53
2023-01-29T10:04:11.263Z,2.56
2023-01-29T10:05:08.951Z,2.6
2023-01-29T10:06:08.876Z,2.66
2023-01-29T10:07:09.789Z,2.71
2023-01-29T10:08:08.957Z,2.75
2023-01-29T10:09:08.850Z,2.84
2023-01-29T10:10:08.902Z,2.9
2023-01-29T10:11:08.968Z,2.97
2023-01-29T10:12:09.811Z,3.08
2023-01-29T10:13:08.919Z,3.17
2023-01-29T10:14:08.919Z,3.25
2023-01-29T10:15:13.870Z,3.36
2023-01-29T10:16:08.928Z,3.48
2023-01-29T10:17:09.108Z,3.53
2023-01-29T10:18:09.374Z,3.57
2023-01-29T10:19:08.897Z,3.39
2023-01-29T10:20:09.846Z,3.28
2023-01-29T10:21:08.987Z,3.23
2023-01-29T10:22:08.989Z,3.08
2023-01-29T10:23:08.879Z,3
2023-01-29T10:24:08.946Z,2.91
2023-01-29T10:25:08.967Z,2.89
2023-01-29T10:26:11.358Z,2.92
2023-01-29T10:27:09.220Z,2.85
2023-01-29T10:28:08.984Z,2.84
2023-01-29T10:29:08.996Z,2.68
2023-01-29T10:30:09.219Z,2.56
2023-01-29T10:31:09.334Z,2.5
2023-01-29T10:32:09.188Z,2.42
2023-01-29T10:33:08.961Z,2.42
2023-01-29T10:34:08.883Z,2.5
2023-01-29T10:35:08.987Z,2.62
2023-01-29T10:36:08.977Z,2.81
2023-01-29T10:37:13.718Z,2.91
2023-01-29T10:38:08.945Z,3.19
2023-01-29T10:39:09.004Z,3.25
2023-01-29T10:40:08.907Z,3.46
2023-01-29T10:41:08.865Z,3.56
2023-01-29T10:42:09.218Z,3.61
2023-01-29T10:43:08.884Z,3.64
2023-01-29T10:44:08.955Z,3.63
2023-01-29T10:45:08.937Z,3.64
2023-01-29T10:46:08.866Z,3.66
2023-01-29T10:47:09.239Z,3.76
2023-01-29T10:48:11.207Z,3.85
2023-01-29T10:49:08.878Z,3.92
2023-01-29T10:50:08.917Z,3.91
2023-01-29T10:51:08.971Z,3.85
2023-01-29T10:52:09.220Z,3.87
2023-01-29T10:53:08.974Z,3.82
2023-01-29T10:54:08.865Z,3.75
2023-01-29T10:55:08.894Z,3.78
2023-01-29T10:56:21.884Z,3.79
2023-01-29T10:57:09.208Z,3.86
2023-01-29T10:58:08.961Z,3.8
2023-01-29T10:59:11.297Z,3.83
2023-01-29T11:00:08.981Z,4.05
2023-01-29T11:01:08.992Z,4.25
2023-01-29T11:02:09.219Z,4.4
2023-01-29T11:03:12.570Z,4.54
2023-01-29T11:04:08.987Z,4.64
2023-01-29T11:05:10.084Z,4.75
2023-01-29T11:06:08.881Z,4.82
2023-01-29T11:07:09.219Z,4.84
2023-01-29T11:08:08.997Z,4.97
2023-01-29T11:09:08.923Z,5.06
2023-01-29T11:10:11.235Z,5.09
2023-01-29T11:11:08.892Z,5.02
2023-01-29T11:12:08.954Z,4.87
2023-01-29T11:13:08.953Z,4.72
2023-01-29T11:14:08.895Z,4.58
2023-01-29T11:15:08.980Z,4.4
2023-01-29T11:16:08.933Z,4.39
2023-01-29T11:17:08.953Z,4.49
2023-01-29T11:18:09.217Z,4.42
2023-01-29T11:19:08.974Z,4.49
2023-01-29T11:20:09.842Z,4.57
2023-01-29T11:21:11.251Z,4.39
2023-01-29T11:22:08.893Z,4.35
2023-01-29T11:23:09.213Z,4.38
2023-01-29T11:24:08.945Z,4.25
2023-01-29T11:25:08.984Z,4.14
2023-01-29T11:26:08.892Z,4.04
2023-01-29T11:27:08.984Z,3.94
2023-01-29T11:28:08.988Z,3.89
2023-01-29T11:29:08.962Z,3.94
2023-01-29T11:30:08.903Z,3.96
2023-01-29T11:31:09.081Z,3.93
2023-01-29T11:32:11.292Z,3.94
2023-01-29T11:33:09.027Z,3.96
2023-01-29T11:34:09.231Z,3.87
2023-01-29T11:35:08.900Z,3.77
2023-01-29T11:36:08.877Z,3.66
2023-01-29T11:37:08.970Z,3.72
2023-01-29T11:38:08.957Z,3.8
2023-01-29T11:39:08.933Z,3.77
2023-01-29T11:40:08.890Z,3.75
2023-01-29T11:41:08.902Z,3.75
2023-01-29T11:42:08.948Z,3.75
2023-01-29T11:43:11.318Z,3.74
2023-01-29T11:44:08.994Z,3.68
2023-01-29T11:45:08.888Z,3.67
2023-01-29T11:46:08.999Z,3.74
2023-01-29T11:47:09.055Z,3.76
2023-01-29T11:48:08.932Z,3.74
2023-01-29T11:49:20.322Z,3.76
2023-01-29T11:50:08.943Z,3.87
2023-01-29T11:51:08.969Z,3.95
2023-01-29T11:52:08.871Z,4.02
2023-01-29T11:53:08.999Z,4.1
2023-01-29T11:54:11.263Z,4.15
2023-01-29T11:55:08.884Z,4.13
2023-01-29T11:56:08.899Z,4.05
2023-01-29T11:57:08.981Z,3.92
2023-01-29T11:58:08.959Z,3.92
2023-01-29T11:59:09.219Z,3.85
2023-01-29T12:00:08.944Z,3.83
2023-01-29T12:01:08.861Z,3.8
2023-01-29T12:02:09.042Z,3.91
2023-01-29T12:03:08.893Z,4.11
2023-01-29T12:04:09.256Z,4.39
2023-01-29T12:05:11.292Z,4.74
2023-01-29T12:06:09.023Z,4.99
2023-01-29T12:07:08.893Z,5.08
2023-01-29T12:08:08.889Z,5.23
2023-01-29T12:09:09.194Z,4.97
2023-01-29T12:10:08.991Z,4.88
2023-01-29T12:11:08.890Z,4.94
2023-01-29T12:12:08.905Z,5.05
2023-01-29T12:13:08.955Z,4.97
2023-01-29T12:14:08.908Z,5.1
2023-01-29T12:15:09.713Z,5.28
2023-01-29T12:16:11.277Z,5.18
2023-01-29T12:17:08.992Z,5.16
2023-01-29T12:18:08.936Z,5.04
2023-01-29T12:19:08.897Z,4.84
2023-01-29T12:20:10.680Z,4.79
2023-01-29T12:21:08.881Z,4.67
2023-01-29T12:22:08.942Z,4.62
2023-01-29T12:23:08.991Z,4.36
2023-01-29T12:24:08.879Z,4.14
2023-01-29T12:25:09.020Z,4.11
2023-01-29T12:26:09.112Z,4.08
2023-01-29T12:27:11.290Z,4.06
2023-01-29T12:28:09.617Z,4.11
2023-01-29T12:29:08.927Z,4.17
2023-01-29T12:30:08.915Z,4.17
2023-01-29T12:31:09.308Z,4.21
2023-01-29T12:32:09.052Z,4.19
2023-01-29T12:33:08.864Z,4.12
2023-01-29T12:34:08.943Z,4.24
2023-01-29T12:35:08.862Z,4.22
2023-01-29T12:36:10.777Z,4.14
2023-01-29T12:37:09.053Z,4.15
2023-01-29T12:38:11.318Z,4.18
2023-01-29T12:39:08.948Z,4.22
2023-01-29T12:40:08.940Z,4.36
2023-01-29T12:41:08.874Z,4.34
2023-01-29T12:42:09.004Z,4.3
2023-01-29T12:43:08.871Z,4.18
2023-01-29T12:44:08.905Z,4.08
2023-01-29T12:45:09.042Z,4.09
2023-01-29T12:46:09.222Z,4.1
2023-01-29T12:47:08.947Z,3.99
2023-01-29T12:48:08.973Z,3.95
2023-01-29T12:49:11.275Z,3.94
2023-01-29T12:50:09.963Z,3.89
2023-01-29T12:51:08.944Z,3.87
2023-01-29T12:52:08.891Z,3.85
2023-01-29T12:53:08.929Z,3.88
2023-01-29T12:54:08.975Z,3.88
2023-01-29T12:55:09.012Z,3.93
2023-01-29T12:56:08.901Z,3.98
2023-01-29T12:57:08.896Z,4.02
2023-01-29T12:58:08.867Z,3.99
2023-01-29T12:59:08.977Z,3.85
2023-01-29T13:00:13.629Z,3.84
2023-01-29T13:01:09.095Z,3.93
2023-01-29T13:02:09.225Z,3.98
2023-01-29T13:03:09.002Z,3.94
2023-01-29T13:04:08.889Z,3.88
2023-01-29T13:05:08.915Z,3.86
2023-01-29T13:06:08.942Z,3.84
2023-01-29T13:07:11.856Z,3.76
2023-01-29T13:08:09.816Z,3.7
2023-01-29T13:09:08.910Z,3.69
2023-01-29T13:10:08.944Z,3.66
2023-01-29T13:11:11.576Z,3.68
2023-01-29T13:12:08.903Z,3.64
2023-01-29T13:13:08.841Z,3.46
2023-01-29T13:14:08.863Z,3.38
2023-01-29T13:15:08.951Z,3.21
2023-01-29T13:16:08.947Z,3.12
2023-01-29T13:17:08.983Z,2.99
2023-01-29T13:18:08.986Z,2.81
2023-01-29T13:19:08.969Z,2.69
2023-01-29T13:20:09.089Z,2.59